sensor_id;sensor_type;location;lat;lon;timestamp;P1;durP1;ratioP1;P2;durP2;ratioP2
63217;SDS011;49314;48.278;16.378;2022-12-20T00:01:11;12.43;;;11.07;;
63217;SDS011;49314;48.278;16.378;2022-12-20T00:03:37;13.77;;;12.45;;
63217;SDS011;49314;48.278;16.378;2022-12-20T00:06:03;14.15;;;12.85;;
63217;SDS011;49314;48.278;16.378;2022-12-20T00:08:28;13.48;;;12.27;;
63217;SDS011;49314;48.278;16.378;2022-12-20T00:10:53;13.27;;;12.10;;
63217;SDS011;49314;48.278;16.378;2022-12-20T00:13:19;15.10;;;13.80;;
63217;SDS011;49314;48.278;16.378;2022-12-20T00:15:44;13.18;;;11.98;;
63217;SDS011;49314;48.278;16.378;2022-12-20T00:18:09;14.30;;;13.00;;
63217;SDS011;49314;48.278;16.378;2022-12-20T00:20:34;12.32;;;11.15;;
63217;SDS011;49314;48.278;16.378;2022-12-20T00:23:00;12.77;;;11.57;;
63217;SDS011;49314;48.278;16.378;2022-12-20T00:25:25;12.73;;;11.63;;
63217;SDS011;49314;48.278;16.378;2022-12-20T00:27:50;14.65;;;13.45;;
63217;SDS011;49314;48.278;16.378;2022-12-20T00:30:16;13.23;;;12.03;;
63217;SDS011;49314;48.278;16.378;2022-12-20T00:32:42;14.43;;;13.18;;
63217;SDS011;49314;48.278;16.378;2022-12-20T00:35:07;13.60;;;12.32;;
63217;SDS011;49314;48.278;16.378;2022-12-20T00:37:32;13.80;;;12.40;;
63217;SDS011;49314;48.278;16.378;2022-12-20T00:39:58;13.80;;;12.65;;
63217;SDS011;49314;48.278;16.378;2022-12-20T00:42:23;12.98;;;11.88;;
63217;SDS011;49314;48.278;16.378;2022-12-20T00:44:48;13.80;;;12.63;;
63217;SDS011;49314;48.278;16.378;2022-12-20T00:47:13;15.03;;;13.63;;
63217;SDS011;49314;48.278;16.378;2022-12-20T00:49:39;13.90;;;12.67;;
63217;SDS011;49314;48.278;16.378;2022-12-20T00:52:04;14.10;;;12.80;;
63217;SDS011;49314;48.278;16.378;2022-12-20T00:54:29;13.23;;;12.07;;
63217;SDS011;49314;48.278;16.378;2022-12-20T00:56:54;14.02;;;12.82;;
63217;SDS011;49314;48.278;16.378;2022-12-20T00:59:19;14.03;;;12.83;;
63217;SDS011;49314;48.278;16.378;2022-12-20T01:01:45;14.48;;;13.25;;
63217;SDS011;49314;48.278;16.378;2022-12-20T01:04:11;13.55;;;12.27;;
63217;SDS011;49314;48.278;16.378;2022-12-20T01:06:36;13.17;;;11.93;;
63217;SDS011;49314;48.278;16.378;2022-12-20T01:09:01;15.25;;;13.88;;
63217;SDS011;49314;48.278;16.378;2022-12-20T01:11:28;13.80;;;12.57;;
63217;SDS011;49314;48.278;16.378;2022-12-20T01:13:54;14.38;;;13.07;;
63217;SDS011;49314;48.278;16.378;2022-12-20T01:16:24;13.02;;;11.93;;
63217;SDS011;49314;48.278;16.378;2022-12-20T01:18:49;12.38;;;11.38;;
63217;SDS011;49314;48.278;16.378;2022-12-20T01:21:15;13.57;;;12.38;;
63217;SDS011;49314;48.278;16.378;2022-12-20T01:23:41;14.90;;;13.60;;
63217;SDS011;49314;48.278;16.378;2022-12-20T01:26:07;13.65;;;12.45;;
63217;SDS011;49314;48.278;16.378;2022-12-20T01:28:36;13.35;;;12.13;;
63217;SDS011;49314;48.278;16.378;2022-12-20T01:31:05;13.40;;;12.15;;
63217;SDS011;49314;48.278;16.378;2022-12-20T01:33:30;13.18;;;12.02;;
63217;SDS011;49314;48.278;16.378;2022-12-20T01:35:56;13.27;;;12.00;;
63217;SDS011;49314;48.278;16.378;2022-12-20T01:38:22;14.15;;;12.77;;
63217;SDS011;49314;48.278;16.378;2022-12-20T01:40:47;14.48;;;13.10;;
63217;SDS011;49314;48.278;16.378;2022-12-20T01:43:12;13.17;;;12.07;;
63217;SDS011;49314;48.278;16.378;2022-12-20T01:45:39;14.52;;;13.32;;
63217;SDS011;49314;48.278;16.378;2022-12-20T01:48:04;13.07;;;11.93;;
63217;SDS011;49314;48.278;16.378;2022-12-20T01:50:29;13.85;;;12.65;;
63217;SDS011;49314;48.278;16.378;2022-12-20T01:52:54;13.45;;;12.27;;
63217;SDS011;49314;48.278;16.378;2022-12-20T01:55:22;13.10;;;12.00;;
63217;SDS011;49314;48.278;16.378;2022-12-20T01:57:55;13.13;;;11.93;;
63217;SDS011;49314;48.278;16.378;2022-12-20T02:00:23;13.32;;;12.02;;
63217;SDS011;49314;48.278;16.378;2022-12-20T02:02:49;13.80;;;12.70;;
63217;SDS011;49314;48.278;16.378;2022-12-20T02:05:14;12.73;;;11.63;;
63217;SDS011;49314;48.278;16.378;2022-12-20T02:07:40;14.15;;;12.85;;
63217;SDS011;49314;48.278;16.378;2022-12-20T02:10:07;14.23;;;12.82;;
63217;SDS011;49314;48.278;16.378;2022-12-20T02:12:45;14.73;;;13.43;;
63217;SDS011;49314;48.278;16.378;2022-12-20T02:17:55;13.93;;;12.73;;
63217;SDS011;49314;48.278;16.378;2022-12-20T02:20:36;14.18;;;12.98;;
63217;SDS011;49314;48.278;16.378;2022-12-20T02:28:30;12.90;;;11.70;;
63217;SDS011;49314;48.278;16.378;2022-12-20T02:30:57;13.80;;;12.60;;
63217;SDS011;49314;48.278;16.378;2022-12-20T02:33:25;12.48;;;11.48;;
63217;SDS011;49314;48.278;16.378;2022-12-20T02:35:52;14.38;;;13.18;;
63217;SDS011;49314;48.278;16.378;2022-12-20T02:38:25;12.67;;;11.50;;
63217;SDS011;49314;48.278;16.378;2022-12-20T02:40:51;15.10;;;13.70;;
63217;SDS011;49314;48.278;16.378;2022-12-20T02:43:18;14.77;;;13.48;;
63217;SDS011;49314;48.278;16.378;2022-12-20T02:46:03;13.25;;;12.10;;
63217;SDS011;49314;48.278;16.378;2022-12-20T02:48:28;14.32;;;13.13;;
63217;SDS011;49314;48.278;16.378;2022-12-20T02:50:56;13.40;;;12.23;;
63217;SDS011;49314;48.278;16.378;2022-12-20T02:53:23;13.60;;;12.40;;
63217;SDS011;49314;48.278;16.378;2022-12-20T02:55:50;13.25;;;12.15;;
63217;SDS011;49314;48.278;16.378;2022-12-20T02:59:04;13.88;;;12.68;;
63217;SDS011;49314;48.278;16.378;2022-12-20T03:01:03;13.63;;;12.43;;
63217;SDS011;49314;48.278;16.378;2022-12-20T03:03:31;13.60;;;12.43;;
63217;SDS011;49314;48.278;16.378;2022-12-20T03:05:57;13.95;;;12.75;;
63217;SDS011;49314;48.278;16.378;2022-12-20T03:08:23;14.77;;;13.40;;
63217;SDS011;49314;48.278;16.378;2022-12-20T03:10:49;13.50;;;12.40;;
63217;SDS011;49314;48.278;16.378;2022-12-20T03:13:15;13.38;;;12.18;;
63217;SDS011;49314;48.278;16.378;2022-12-20T03:15:40;13.68;;;12.45;;
63217;SDS011;49314;48.278;16.378;2022-12-20T03:18:05;13.15;;;11.98;;
63217;SDS011;49314;48.278;16.378;2022-12-20T03:20:30;13.48;;;12.27;;
63217;SDS011;49314;48.278;16.378;2022-12-20T03:22:56;14.25;;;12.95;;
63217;SDS011;49314;48.278;16.378;2022-12-20T03:25:21;13.17;;;11.97;;
63217;SDS011;49314;48.278;16.378;2022-12-20T03:27:46;14.48;;;13.18;;
63217;SDS011;49314;48.278;16.378;2022-12-20T03:30:12;14.52;;;13.23;;
63217;SDS011;49314;48.278;16.378;2022-12-20T03:32:37;14.40;;;13.10;;
63217;SDS011;49314;48.278;16.378;2022-12-20T03:35:03;13.90;;;12.77;;
63217;SDS011;49314;48.278;16.378;2022-12-20T03:37:28;14.85;;;13.55;;
63217;SDS011;49314;48.278;16.378;2022-12-20T03:39:53;13.38;;;12.25;;
63217;SDS011;49314;48.278;16.378;2022-12-20T03:42:18;13.97;;;12.73;;
63217;SDS011;49314;48.278;16.378;2022-12-20T03:44:43;12.70;;;11.67;;
63217;SDS011;49314;48.278;16.378;2022-12-20T03:47:09;13.57;;;12.35;;
63217;SDS011;49314;48.278;16.378;2022-12-20T03:49:34;14.07;;;12.73;;
63217;SDS011;49314;48.278;16.378;2022-12-20T03:51:59;13.10;;;11.90;;
63217;SDS011;49314;48.278;16.378;2022-12-20T03:54:24;14.63;;;13.32;;
63217;SDS011;49314;48.278;16.378;2022-12-20T03:56:50;13.27;;;12.10;;
63217;SDS011;49314;48.278;16.378;2022-12-20T03:59:15;15.07;;;13.68;;
63217;SDS011;49314;48.278;16.378;2022-12-20T04:01:40;13.43;;;12.23;;
63217;SDS011;49314;48.278;16.378;2022-12-20T04:04:12;14.93;;;13.73;;
63217;SDS011;49314;48.278;16.378;2022-12-20T04:06:38;12.55;;;11.35;;
63217;SDS011;49314;48.278;16.378;2022-12-20T04:09:03;13.07;;;11.87;;
63217;SDS011;49314;48.278;16.378;2022-12-20T04:11:28;13.15;;;11.95;;
63217;SDS011;49314;48.278;16.378;2022-12-20T04:13:53;12.95;;;11.85;;
63217;SDS011;49314;48.278;16.378;2022-12-20T04:16:20;14.05;;;12.85;;
63217;SDS011;49314;48.278;16.378;2022-12-20T04:18:46;13.30;;;12.10;;
63217;SDS011;49314;48.278;16.378;2022-12-20T04:21:12;14.13;;;12.82;;
63217;SDS011;49314;48.278;16.378;2022-12-20T04:23:38;14.75;;;13.52;;
63217;SDS011;49314;48.278;16.378;2022-12-20T04:26:04;14.27;;;13.00;;
63217;SDS011;49314;48.278;16.378;2022-12-20T04:28:30;14.25;;;12.85;;
63217;SDS011;49314;48.278;16.378;2022-12-20T04:30:55;13.87;;;12.67;;
63217;SDS011;49314;48.278;16.378;2022-12-20T04:33:20;13.43;;;12.35;;
63217;SDS011;49314;48.278;16.378;2022-12-20T04:35:46;13.00;;;11.93;;
63217;SDS011;49314;48.278;16.378;2022-12-20T04:38:11;14.00;;;12.70;;
63217;SDS011;49314;48.278;16.378;2022-12-20T04:40:36;13.47;;;12.27;;
63217;SDS011;49314;48.278;16.378;2022-12-20T04:43:01;13.47;;;12.27;;
63217;SDS011;49314;48.278;16.378;2022-12-20T04:45:26;12.93;;;11.87;;
63217;SDS011;49314;48.278;16.378;2022-12-20T04:47:52;12.97;;;11.80;;
63217;SDS011;49314;48.278;16.378;2022-12-20T04:50:17;12.27;;;11.10;;
63217;SDS011;49314;48.278;16.378;2022-12-20T04:52:43;14.23;;;13.02;;
63217;SDS011;49314;48.278;16.378;2022-12-20T04:55:27;12.27;;;11.15;;
63217;SDS011;49314;48.278;16.378;2022-12-20T04:57:52;12.93;;;11.83;;
63217;SDS011;49314;48.278;16.378;2022-12-20T05:00:17;15.03;;;13.67;;
63217;SDS011;49314;48.278;16.378;2022-12-20T05:02:43;13.95;;;12.73;;
63217;SDS011;49314;48.278;16.378;2022-12-20T05:05:08;13.53;;;12.23;;
63217;SDS011;49314;48.278;16.378;2022-12-20T05:07:33;13.07;;;11.93;;
63217;SDS011;49314;48.278;16.378;2022-12-20T05:09:58;15.27;;;13.97;;
63217;SDS011;49314;48.278;16.378;2022-12-20T05:12:23;13.87;;;12.73;;
63217;SDS011;49314;48.278;16.378;2022-12-20T05:14:49;15.23;;;13.93;;
63217;SDS011;49314;48.278;16.378;2022-12-20T05:17:14;14.43;;;13.03;;
63217;SDS011;49314;48.278;16.378;2022-12-20T05:19:39;13.03;;;11.87;;
63217;SDS011;49314;48.278;16.378;2022-12-20T05:22:04;14.00;;;12.80;;
63217;SDS011;49314;48.278;16.378;2022-12-20T05:24:48;14.68;;;13.38;;
63217;SDS011;49314;48.278;16.378;2022-12-20T05:27:32;12.88;;;11.77;;
63217;SDS011;49314;48.278;16.378;2022-12-20T05:29:57;14.57;;;13.27;;
63217;SDS011;49314;48.278;16.378;2022-12-20T05:32:22;14.33;;;13.03;;
63217;SDS011;49314;48.278;16.378;2022-12-20T05:34:47;14.33;;;12.97;;
63217;SDS011;49314;48.278;16.378;2022-12-20T05:37:13;13.90;;;12.60;;
63217;SDS011;49314;48.278;16.378;2022-12-20T05:39:38;13.57;;;12.43;;
63217;SDS011;49314;48.278;16.378;2022-12-20T05:42:03;14.20;;;12.95;;
63217;SDS011;49314;48.278;16.378;2022-12-20T05:44:28;14.00;;;12.77;;
63217;SDS011;49314;48.278;16.378;2022-12-20T05:46:54;14.43;;;13.13;;
63217;SDS011;49314;48.278;16.378;2022-12-20T05:49:19;13.55;;;12.32;;
63217;SDS011;49314;48.278;16.378;2022-12-20T05:51:44;13.70;;;12.30;;
63217;SDS011;49314;48.278;16.378;2022-12-20T05:54:09;12.93;;;11.83;;
63217;SDS011;49314;48.278;16.378;2022-12-20T05:56:35;13.80;;;12.60;;
63217;SDS011;49314;48.278;16.378;2022-12-20T05:59:00;14.15;;;12.95;;
63217;SDS011;49314;48.278;16.378;2022-12-20T06:01:25;13.23;;;12.03;;
63217;SDS011;49314;48.278;16.378;2022-12-20T06:03:50;12.97;;;11.77;;
63217;SDS011;49314;48.278;16.378;2022-12-20T06:06:16;13.63;;;12.32;;
63217;SDS011;49314;48.278;16.378;2022-12-20T06:08:42;15.77;;;14.38;;
63217;SDS011;49314;48.278;16.378;2022-12-20T06:11:07;15.70;;;14.10;;
63217;SDS011;49314;48.278;16.378;2022-12-20T06:13:33;14.65;;;13.30;;
63217;SDS011;49314;48.278;16.378;2022-12-20T06:15:58;13.90;;;12.70;;
63217;SDS011;49314;48.278;16.378;2022-12-20T06:18:24;14.02;;;12.82;;
63217;SDS011;49314;48.278;16.378;2022-12-20T06:20:50;14.32;;;13.02;;
63217;SDS011;49314;48.278;16.378;2022-12-20T06:23:15;14.45;;;13.15;;
63217;SDS011;49314;48.278;16.378;2022-12-20T06:25:40;14.65;;;13.40;;
63217;SDS011;49314;48.278;16.378;2022-12-20T06:28:06;14.93;;;13.60;;
63217;SDS011;49314;48.278;16.378;2022-12-20T06:30:31;12.98;;;11.77;;
63217;SDS011;49314;48.278;16.378;2022-12-20T06:32:58;15.18;;;13.68;;
63217;SDS011;49314;48.278;16.378;2022-12-20T06:35:23;14.85;;;13.45;;
63217;SDS011;49314;48.278;16.378;2022-12-20T06:37:48;14.03;;;12.63;;
63217;SDS011;49314;48.278;16.378;2022-12-20T06:40:13;14.07;;;12.77;;
63217;SDS011;49314;48.278;16.378;2022-12-20T06:42:39;15.55;;;14.10;;
63217;SDS011;49314;48.278;16.378;2022-12-20T06:45:04;15.88;;;14.43;;
63217;SDS011;49314;48.278;16.378;2022-12-20T06:47:30;16.13;;;14.65;;
63217;SDS011;49314;48.278;16.378;2022-12-20T06:49:55;16.35;;;14.85;;
63217;SDS011;49314;48.278;16.378;2022-12-20T06:52:21;15.55;;;14.15;;
63217;SDS011;49314;48.278;16.378;2022-12-20T06:54:47;20.45;;;13.95;;
63217;SDS011;49314;48.278;16.378;2022-12-20T06:57:12;15.20;;;13.70;;
63217;SDS011;49314;48.278;16.378;2022-12-20T06:59:37;16.90;;;15.38;;
63217;SDS011;49314;48.278;16.378;2022-12-20T07:02:03;16.87;;;15.27;;
63217;SDS011;49314;48.278;16.378;2022-12-20T07:04:28;15.02;;;13.55;;
63217;SDS011;49314;48.278;16.378;2022-12-20T07:06:53;15.70;;;14.10;;
63217;SDS011;49314;48.278;16.378;2022-12-20T07:09:18;16.83;;;15.07;;
63217;SDS011;49314;48.278;16.378;2022-12-20T07:11:44;18.10;;;16.50;;
63217;SDS011;49314;48.278;16.378;2022-12-20T07:14:09;16.10;;;14.60;;
63217;SDS011;49314;48.278;16.378;2022-12-20T07:16:34;17.27;;;15.57;;
63217;SDS011;49314;48.278;16.378;2022-12-20T07:18:59;14.57;;;13.18;;
63217;SDS011;49314;48.278;16.378;2022-12-20T07:21:25;17.40;;;15.70;;
63217;SDS011;49314;48.278;16.378;2022-12-20T07:23:50;16.20;;;14.70;;
63217;SDS011;49314;48.278;16.378;2022-12-20T07:26:15;16.27;;;14.77;;
63217;SDS011;49314;48.278;16.378;2022-12-20T07:28:41;15.00;;;13.52;;
63217;SDS011;49314;48.278;16.378;2022-12-20T07:31:06;17.40;;;15.70;;
63217;SDS011;49314;48.278;16.378;2022-12-20T07:33:32;16.50;;;14.70;;
63217;SDS011;49314;48.278;16.378;2022-12-20T07:36:04;15.85;;;14.27;;
63217;SDS011;49314;48.278;16.378;2022-12-20T07:38:30;16.00;;;14.38;;
63217;SDS011;49314;48.278;16.378;2022-12-20T07:40:55;16.80;;;15.10;;
63217;SDS011;49314;48.278;16.378;2022-12-20T07:43:20;16.17;;;14.73;;
63217;SDS011;49314;48.278;16.378;2022-12-20T07:45:45;16.60;;;14.97;;
63217;SDS011;49314;48.278;16.378;2022-12-20T07:48:11;18.08;;;16.33;;
63217;SDS011;49314;48.278;16.378;2022-12-20T07:50:36;18.05;;;16.35;;
63217;SDS011;49314;48.278;16.378;2022-12-20T07:53:02;16.17;;;14.73;;
63217;SDS011;49314;48.278;16.378;2022-12-20T07:55:29;17.65;;;15.93;;
63217;SDS011;49314;48.278;16.378;2022-12-20T07:57:56;16.17;;;14.55;;
63217;SDS011;49314;48.278;16.378;2022-12-20T08:00:22;15.88;;;14.25;;
63217;SDS011;49314;48.278;16.378;2022-12-20T08:02:49;17.00;;;15.43;;
63217;SDS011;49314;48.278;16.378;2022-12-20T08:05:16;16.63;;;15.02;;
63217;SDS011;49314;48.278;16.378;2022-12-20T08:07:42;16.23;;;14.73;;
63217;SDS011;49314;48.278;16.378;2022-12-20T08:10:08;15.68;;;14.18;;
63217;SDS011;49314;48.278;16.378;2022-12-20T08:12:35;16.15;;;14.65;;
63217;SDS011;49314;48.278;16.378;2022-12-20T08:15:02;15.35;;;13.95;;
63217;SDS011;49314;48.278;16.378;2022-12-20T08:17:27;15.88;;;14.43;;
63217;SDS011;49314;48.278;16.378;2022-12-20T08:19:52;14.63;;;13.23;;
63217;SDS011;49314;48.278;16.378;2022-12-20T08:22:18;15.25;;;13.75;;
63217;SDS011;49314;48.278;16.378;2022-12-20T08:24:43;15.80;;;14.30;;
63217;SDS011;49314;48.278;16.378;2022-12-20T08:27:08;15.60;;;14.02;;
63217;SDS011;49314;48.278;16.378;2022-12-20T08:29:34;16.75;;;15.23;;
63217;SDS011;49314;48.278;16.378;2022-12-20T08:31:59;15.85;;;14.32;;
63217;SDS011;49314;48.278;16.378;2022-12-20T08:34:25;15.65;;;14.20;;
63217;SDS011;49314;48.278;16.378;2022-12-20T08:36:50;16.38;;;14.65;;
63217;SDS011;49314;48.278;16.378;2022-12-20T08:39:15;14.93;;;13.52;;
63217;SDS011;49314;48.278;16.378;2022-12-20T08:41:40;15.95;;;14.25;;
63217;SDS011;49314;48.278;16.378;2022-12-20T08:44:06;16.55;;;14.82;;
63217;SDS011;49314;48.278;16.378;2022-12-20T08:46:31;15.52;;;13.93;;
63217;SDS011;49314;48.278;16.378;2022-12-20T08:48:56;14.00;;;12.60;;
63217;SDS011;49314;48.278;16.378;2022-12-20T08:51:22;16.77;;;15.17;;
63217;SDS011;49314;48.278;16.378;2022-12-20T08:53:47;15.03;;;13.60;;
63217;SDS011;49314;48.278;16.378;2022-12-20T08:56:13;14.60;;;13.27;;
63217;SDS011;49314;48.278;16.378;2022-12-20T08:58:40;15.38;;;13.80;;
63217;SDS011;49314;48.278;16.378;2022-12-20T09:01:06;13.60;;;12.30;;
63217;SDS011;49314;48.278;16.378;2022-12-20T09:03:32;14.85;;;13.43;;
63217;SDS011;49314;48.278;16.378;2022-12-20T09:05:58;14.90;;;13.38;;
63217;SDS011;49314;48.278;16.378;2022-12-20T09:08:23;15.45;;;13.95;;
63217;SDS011;49314;48.278;16.378;2022-12-20T09:10:49;13.77;;;12.57;;
63217;SDS011;49314;48.278;16.378;2022-12-20T09:13:14;14.32;;;12.93;;
63217;SDS011;49314;48.278;16.378;2022-12-20T09:15:39;14.77;;;13.35;;
63217;SDS011;49314;48.278;16.378;2022-12-20T09:18:04;13.93;;;12.52;;
63217;SDS011;49314;48.278;16.378;2022-12-20T09:20:30;14.88;;;13.48;;
63217;SDS011;49314;48.278;16.378;2022-12-20T09:22:56;13.35;;;11.98;;
63217;SDS011;49314;48.278;16.378;2022-12-20T09:25:22;14.57;;;13.18;;
63217;SDS011;49314;48.278;16.378;2022-12-20T09:27:47;14.60;;;13.10;;
63217;SDS011;49314;48.278;16.378;2022-12-20T09:30:12;15.37;;;13.80;;
63217;SDS011;49314;48.278;16.378;2022-12-20T09:32:37;14.85;;;13.25;;
63217;SDS011;49314;48.278;16.378;2022-12-20T09:35:03;15.53;;;14.03;;
63217;SDS011;49314;48.278;16.378;2022-12-20T09:37:29;16.23;;;14.00;;
63217;SDS011;49314;48.278;16.378;2022-12-20T09:39:55;14.05;;;12.68;;
63217;SDS011;49314;48.278;16.378;2022-12-20T09:42:21;15.33;;;13.77;;
63217;SDS011;49314;48.278;16.378;2022-12-20T09:44:48;14.73;;;13.32;;
63217;SDS011;49314;48.278;16.378;2022-12-20T09:47:14;14.50;;;13.10;;
63217;SDS011;49314;48.278;16.378;2022-12-20T09:49:42;15.48;;;13.63;;
63217;SDS011;49314;48.278;16.378;2022-12-20T09:54:36;16.23;;;14.67;;
63217;SDS011;49314;48.278;16.378;2022-12-20T09:59:34;16.48;;;14.77;;
63217;SDS011;49314;48.278;16.378;2022-12-20T10:01:59;16.73;;;14.93;;
63217;SDS011;49314;48.278;16.378;2022-12-20T10:04:26;15.87;;;14.17;;
63217;SDS011;49314;48.278;16.378;2022-12-20T10:07:02;15.55;;;14.05;;
63217;SDS011;49314;48.278;16.378;2022-12-20T10:12:19;15.52;;;13.93;;
63217;SDS011;49314;48.278;16.378;2022-12-20T10:17:15;16.50;;;14.80;;
63217;SDS011;49314;48.278;16.378;2022-12-20T10:19:58;15.75;;;14.10;;
63217;SDS011;49314;48.278;16.378;2022-12-20T10:25:01;19.20;;;15.07;;
63217;SDS011;49314;48.278;16.378;2022-12-20T10:27:26;15.75;;;14.07;;
63217;SDS011;49314;48.278;16.378;2022-12-20T10:29:52;14.48;;;12.98;;
63217;SDS011;49314;48.278;16.378;2022-12-20T10:32:18;16.60;;;14.40;;
63217;SDS011;49314;48.278;16.378;2022-12-20T10:34:58;14.82;;;13.25;;
63217;SDS011;49314;48.278;16.378;2022-12-20T10:37:25;15.80;;;14.27;;
63217;SDS011;49314;48.278;16.378;2022-12-20T10:39:50;15.60;;;13.55;;
63217;SDS011;49314;48.278;16.378;2022-12-20T10:42:26;16.55;;;14.65;;
63217;SDS011;49314;48.278;16.378;2022-12-20T10:44:54;14.60;;;13.05;;
63217;SDS011;49314;48.278;16.378;2022-12-20T10:47:39;15.55;;;14.05;;
63217;SDS011;49314;48.278;16.378;2022-12-20T10:52:33;18.02;;;14.98;;
63217;SDS011;49314;48.278;16.378;2022-12-20T10:54:58;14.00;;;12.63;;
63217;SDS011;49314;48.278;16.378;2022-12-20T10:57:25;15.43;;;13.83;;
63217;SDS011;49314;48.278;16.378;2022-12-20T10:59:52;14.95;;;13.48;;
63217;SDS011;49314;48.278;16.378;2022-12-20T11:04:55;15.38;;;12.85;;
63217;SDS011;49314;48.278;16.378;2022-12-20T11:07:22;15.75;;;12.90;;
63217;SDS011;49314;48.278;16.378;2022-12-20T11:09:51;14.75;;;13.20;;
63217;SDS011;49314;48.278;16.378;2022-12-20T11:12:16;15.35;;;13.75;;
63217;SDS011;49314;48.278;16.378;2022-12-20T11:14:45;15.80;;;14.23;;
63217;SDS011;49314;48.278;16.378;2022-12-20T11:30:02;14.97;;;13.47;;
63217;SDS011;49314;48.278;16.378;2022-12-20T11:37:25;15.90;;;14.30;;
63217;SDS011;49314;48.278;16.378;2022-12-20T11:45:22;14.52;;;13.02;;
63217;SDS011;49314;48.278;16.378;2022-12-20T11:48:10;15.23;;;13.00;;
63217;SDS011;49314;48.278;16.378;2022-12-20T11:55:59;15.43;;;13.40;;
63217;SDS011;49314;48.278;16.378;2022-12-20T11:58:28;15.25;;;13.70;;
63217;SDS011;49314;48.278;16.378;2022-12-20T12:00:59;15.23;;;13.45;;
63217;SDS011;49314;48.278;16.378;2022-12-20T12:03:27;17.58;;;13.23;;
63217;SDS011;49314;48.278;16.378;2022-12-20T12:05:54;16.00;;;14.30;;
63217;SDS011;49314;48.278;16.378;2022-12-20T12:08:22;17.20;;;15.40;;
63217;SDS011;49314;48.278;16.378;2022-12-20T12:10:58;15.52;;;14.02;;
63217;SDS011;49314;48.278;16.378;2022-12-20T12:13:26;15.10;;;13.50;;
63217;SDS011;49314;48.278;16.378;2022-12-20T12:18:22;16.08;;;14.38;;
63217;SDS011;49314;48.278;16.378;2022-12-20T12:21:01;15.70;;;14.00;;
63217;SDS011;49314;48.278;16.378;2022-12-20T12:23:35;16.80;;;14.00;;
63217;SDS011;49314;48.278;16.378;2022-12-20T12:26:04;14.65;;;13.13;;
63217;SDS011;49314;48.278;16.378;2022-12-20T12:28:31;15.55;;;13.82;;
63217;SDS011;49314;48.278;16.378;2022-12-20T12:30:58;15.70;;;14.07;;
63217;SDS011;49314;48.278;16.378;2022-12-20T12:33:27;14.27;;;12.75;;
63217;SDS011;49314;48.278;16.378;2022-12-20T12:38:31;14.93;;;13.35;;
63217;SDS011;49314;48.278;16.378;2022-12-20T12:43:44;14.75;;;13.35;;
63217;SDS011;49314;48.278;16.378;2022-12-20T12:46:15;15.45;;;13.95;;
63217;SDS011;49314;48.278;16.378;2022-12-20T12:48:42;16.42;;;14.65;;
63217;SDS011;49314;48.278;16.378;2022-12-20T12:51:10;15.55;;;13.60;;
63217;SDS011;49314;48.278;16.378;2022-12-20T12:53:36;15.52;;;13.30;;
63217;SDS011;49314;48.278;16.378;2022-12-20T12:59:09;15.20;;;13.63;;
63217;SDS011;49314;48.278;16.378;2022-12-20T13:01:53;15.38;;;13.27;;
63217;SDS011;49314;48.278;16.378;2022-12-20T13:11:50;15.18;;;13.60;;
63217;SDS011;49314;48.278;16.378;2022-12-20T13:16:41;15.37;;;12.23;;
63217;SDS011;49314;48.278;16.378;2022-12-20T13:19:11;14.82;;;13.32;;
63217;SDS011;49314;48.278;16.378;2022-12-20T13:21:37;14.63;;;13.15;;
63217;SDS011;49314;48.278;16.378;2022-12-20T13:26:51;14.23;;;12.25;;
63217;SDS011;49314;48.278;16.378;2022-12-20T13:29:20;14.98;;;13.45;;
63217;SDS011;49314;48.278;16.378;2022-12-20T13:31:46;16.17;;;13.95;;
63217;SDS011;49314;48.278;16.378;2022-12-20T13:34:34;13.70;;;12.03;;
63217;SDS011;49314;48.278;16.378;2022-12-20T13:36:57;13.43;;;12.05;;
63217;SDS011;49314;48.278;16.378;2022-12-20T13:41:52;13.13;;;11.82;;
63217;SDS011;49314;48.278;16.378;2022-12-20T13:44:32;15.52;;;12.82;;
63217;SDS011;49314;48.278;16.378;2022-12-20T13:47:01;15.80;;;14.13;;
63217;SDS011;49314;48.278;16.378;2022-12-20T13:49:35;15.88;;;14.30;;
63217;SDS011;49314;48.278;16.378;2022-12-20T13:54:33;13.32;;;12.02;;
63217;SDS011;49314;48.278;16.378;2022-12-20T13:57:04;14.18;;;12.63;;
63217;SDS011;49314;48.278;16.378;2022-12-20T13:59:30;12.77;;;11.48;;
63217;SDS011;49314;48.278;16.378;2022-12-20T14:01:58;13.20;;;11.30;;
63217;SDS011;49314;48.278;16.378;2022-12-20T14:04:26;15.25;;;13.18;;
63217;SDS011;49314;48.278;16.378;2022-12-20T14:07:01;13.88;;;11.68;;
63217;SDS011;49314;48.278;16.378;2022-12-20T14:09:29;14.20;;;12.23;;
63217;SDS011;49314;48.278;16.378;2022-12-20T14:11:54;14.05;;;12.60;;
63217;SDS011;49314;48.278;16.378;2022-12-20T14:14:26;14.70;;;11.53;;
63217;SDS011;49314;48.278;16.378;2022-12-20T14:16:51;13.67;;;12.27;;
63217;SDS011;49314;48.278;16.378;2022-12-20T14:19:16;13.53;;;12.10;;
63217;SDS011;49314;48.278;16.378;2022-12-20T14:21:42;15.87;;;12.53;;
63217;SDS011;49314;48.278;16.378;2022-12-20T14:24:18;13.63;;;12.23;;
63217;SDS011;49314;48.278;16.378;2022-12-20T14:26:45;12.40;;;11.10;;
63217;SDS011;49314;48.278;16.378;2022-12-20T14:29:15;13.50;;;12.20;;
63217;SDS011;49314;48.278;16.378;2022-12-20T14:31:42;13.45;;;12.02;;
63217;SDS011;49314;48.278;16.378;2022-12-20T14:36:34;17.35;;;15.52;;
63217;SDS011;49314;48.278;16.378;2022-12-20T14:39:00;18.33;;;16.35;;
63217;SDS011;49314;48.278;16.378;2022-12-20T14:41:29;21.42;;;15.43;;
63217;SDS011;49314;48.278;16.378;2022-12-20T14:43:55;23.55;;;16.50;;
63217;SDS011;49314;48.278;16.378;2022-12-20T14:46:20;19.50;;;16.85;;
63217;SDS011;49314;48.278;16.378;2022-12-20T14:48:46;22.00;;;17.83;;
63217;SDS011;49314;48.278;16.378;2022-12-20T14:51:12;19.63;;;17.55;;
63217;SDS011;49314;48.278;16.378;2022-12-20T14:53:43;20.75;;;18.50;;
63217;SDS011;49314;48.278;16.378;2022-12-20T14:56:12;22.30;;;18.15;;
63217;SDS011;49314;48.278;16.378;2022-12-20T14:58:38;22.08;;;17.27;;
63217;SDS011;49314;48.278;16.378;2022-12-20T15:03:47;19.90;;;17.85;;
63217;SDS011;49314;48.278;16.378;2022-12-20T15:06:29;19.95;;;17.33;;
63217;SDS011;49314;48.278;16.378;2022-12-20T15:08:55;17.85;;;15.52;;
63217;SDS011;49314;48.278;16.378;2022-12-20T15:11:21;29.20;;;17.30;;
63217;SDS011;49314;48.278;16.378;2022-12-20T15:13:46;31.10;;;18.65;;
63217;SDS011;49314;48.278;16.378;2022-12-20T15:16:14;33.35;;;21.40;;
63217;SDS011;49314;48.278;16.378;2022-12-20T15:18:40;40.58;;;19.10;;
63217;SDS011;49314;48.278;16.378;2022-12-20T15:21:09;43.77;;;19.53;;
63217;SDS011;49314;48.278;16.378;2022-12-20T15:23:35;48.15;;;17.63;;
63217;SDS011;49314;48.278;16.378;2022-12-20T15:26:03;30.58;;;18.65;;
63217;SDS011;49314;48.278;16.378;2022-12-20T15:28:28;36.60;;;18.92;;
63217;SDS011;49314;48.278;16.378;2022-12-20T15:30:54;36.37;;;17.47;;
63217;SDS011;49314;48.278;16.378;2022-12-20T15:33:20;35.30;;;17.92;;
63217;SDS011;49314;48.278;16.378;2022-12-20T15:35:46;30.77;;;17.88;;